EDDG/FMO METAR and TAF weather

Enter ICAO airport designator
Station Type Date Time Source
EDDG METAR 2020/08/06 01:20 UTC NOAA

EDDG 060120Z VRB01KT CAVOK 15/10 Q1017 NOSIG


Station Type Date Time Source
EDDG Decoded METAR 2020/08/06 01:20 UTC NOAA

Muenster / Osnabrueck, Germany (EDDG) 52-08N 007-42E 53M
Aug 05, 2020 - 09:20 PM EDT / 2020.08.06 0120 UTC
Wind: Variable at 1 MPH (1 KT):0
Visibility: greater than 7 mile(s):0
Temperature: 59 F (15 C)
Dew Point: 50 F (10 C)
Relative Humidity: 72%
Pressure (altimeter): 30.03 in. Hg (1017 hPa)
ob: EDDG 060120Z VRB01KT CAVOK 15/10 Q1017 NOSIG
cycle: 1

Station Type Date Time Source
EDDG TAF 2020/08/05 18:27 UTC NOAA

TAF EDDG 051700Z 0518/0618 19005KT CAVOK
BECMG 0518/0520 13003KT
BECMG 0606/0609 20006KT
BECMG 0615/0618 09004KT

Example: see airport list